createdAt,value
2022-07-25T00:00:14.844Z,6.47
2022-07-25T00:05:19.242Z,6.47
2022-07-25T00:10:22.335Z,6.68
2022-07-25T00:15:26.743Z,6.65
2022-07-25T00:20:29.780Z,6.90
2022-07-25T00:25:33.141Z,7.13
2022-07-25T00:30:37.990Z,6.40
2022-07-25T00:35:41.044Z,7.00
2022-07-25T00:40:44.157Z,6.60
2022-07-25T00:45:48.585Z,6.35
2022-07-25T00:50:51.687Z,6.00
2022-07-25T00:55:55.381Z,6.43
2022-07-25T01:01:00.394Z,6.65
2022-07-25T01:06:03.931Z,6.75
2022-07-25T01:11:07.433Z,6.38
2022-07-25T01:16:11.857Z,6.45
2022-07-25T01:21:16.308Z,6.70
2022-07-25T01:26:19.385Z,6.07
2022-07-25T01:31:22.501Z,6.57
2022-07-25T01:36:27.039Z,6.00
2022-07-25T01:41:30.167Z,6.57
2022-07-25T01:46:33.392Z,6.38
2022-07-25T01:51:37.848Z,6.43
2022-07-25T01:56:44.736Z,7.05
2022-07-25T02:01:50.106Z,6.38
2022-07-25T02:06:54.550Z,6.50
2022-07-25T02:11:57.660Z,6.35
2022-07-25T02:17:00.840Z,6.70
2022-07-25T02:22:05.657Z,6.93
2022-07-25T02:27:08.764Z,7.05
2022-07-25T02:32:11.787Z,6.50
2022-07-25T02:37:16.259Z,6.65
2022-07-25T02:42:19.262Z,6.43
2022-07-25T02:47:22.313Z,6.07
2022-07-25T02:52:26.759Z,6.78
2022-07-25T02:57:29.811Z,6.38
2022-07-25T03:02:33.042Z,6.50
2022-07-25T03:07:37.715Z,7.32
2022-07-25T03:12:41.560Z,6.43
2022-07-25T03:17:44.635Z,6.75
2022-07-25T03:22:49.846Z,6.10
2022-07-25T03:27:52.863Z,7.00
2022-07-25T03:32:56.043Z,7.03
2022-07-25T03:38:00.459Z,7.63
2022-07-25T03:43:03.528Z,7.00
2022-07-25T03:48:06.967Z,7.43
2022-07-25T03:53:11.366Z,7.60
2022-07-25T03:58:14.427Z,8.10
2022-07-25T04:03:17.511Z,7.97
2022-07-25T04:08:21.945Z,6.85
2022-07-25T04:13:25.031Z,7.95
2022-07-25T04:18:28.801Z,7.60
2022-07-25T04:23:33.447Z,6.97
2022-07-25T04:28:36.489Z,7.68
2022-07-25T04:33:39.624Z,7.32
2022-07-25T04:38:44.100Z,7.38
2022-07-25T04:43:48.954Z,7.22
2022-07-25T04:48:52.565Z,7.20
2022-07-25T04:53:57.025Z,7.63
2022-07-25T04:59:06.416Z,7.07
2022-07-25T05:04:10.351Z,7.25
2022-07-25T05:09:15.033Z,6.30
2022-07-25T05:14:18.488Z,6.72
2022-07-25T05:19:23.919Z,6.55
2022-07-25T05:24:28.321Z,6.80
2022-07-25T05:29:31.791Z,6.60
2022-07-25T05:34:34.878Z,6.75
2022-07-25T05:39:40.331Z,5.82
2022-07-25T05:44:43.371Z,6.03
2022-07-25T05:49:46.419Z,6.95
2022-07-25T05:54:51.372Z,6.25
2022-07-25T05:59:54.550Z,6.28
2022-07-25T06:04:57.562Z,6.38
2022-07-25T06:10:01.963Z,6.70
2022-07-25T06:15:05.672Z,7.00
2022-07-25T06:20:09.482Z,6.97
2022-07-25T06:25:14.051Z,6.75
2022-07-25T06:30:20.078Z,7.32
2022-07-25T06:35:23.707Z,6.97
2022-07-25T06:40:28.515Z,8.05
2022-07-25T06:45:31.633Z,7.50
2022-07-25T06:50:34.683Z,7.78
2022-07-25T06:55:39.341Z,7.47
2022-07-25T07:00:42.512Z,8.20
2022-07-25T07:05:45.612Z,7.70
2022-07-25T07:10:50.073Z,8.13
2022-07-25T07:15:53.484Z,7.82
2022-07-25T07:20:56.578Z,7.88
2022-07-25T07:26:01.054Z,8.35
2022-07-25T07:31:16.166Z,8.20
2022-07-25T07:36:20.556Z,7.78
2022-07-25T07:41:25.039Z,8.20
2022-07-25T07:46:28.265Z,7.93
2022-07-25T07:51:31.526Z,8.25
2022-07-25T07:56:36.019Z,8.63
2022-07-25T08:01:39.211Z,8.27
2022-07-25T08:06:43.229Z,8.45
2022-07-25T08:11:47.652Z,8.13
2022-07-25T08:16:52.670Z,8.88
2022-07-25T08:21:55.969Z,8.88
2022-07-25T08:27:00.412Z,8.30
2022-07-25T08:32:03.451Z,9.20
2022-07-25T08:37:06.500Z,8.20
2022-07-25T08:42:11.349Z,9.25
2022-07-25T08:47:15.777Z,9.38
2022-07-25T08:52:19.575Z,9.27
2022-07-25T08:57:23.998Z,9.55
2022-07-25T09:02:28.251Z,8.85
2022-07-25T09:07:33.672Z,9.85
2022-07-25T09:12:38.159Z,9.52
2022-07-25T09:17:51.212Z,9.93
2022-07-25T09:22:54.264Z,10.18
2022-07-25T09:28:14.748Z,10.10
2022-07-25T09:33:17.789Z,9.95
2022-07-25T09:38:21.702Z,10.00
2022-07-25T09:43:37.492Z,10.07
2022-07-25T09:48:41.661Z,9.82
2022-07-25T09:53:44.871Z,9.65
2022-07-25T09:58:49.369Z,9.68
2022-07-25T10:03:54.025Z,9.80
2022-07-25T10:08:57.884Z,10.50
2022-07-25T10:14:11.936Z,9.68
2022-07-25T10:19:15.316Z,10.43
2022-07-25T10:24:18.399Z,10.05
2022-07-25T10:29:22.814Z,9.07
2022-07-25T10:34:31.692Z,9.55
2022-07-25T10:39:40.100Z,9.43
2022-07-25T10:44:46.560Z,9.77
2022-07-25T10:50:22.237Z,10.52
2022-07-25T10:55:24.227Z,9.27
2022-07-25T11:00:28.996Z,10.02
2022-07-25T11:05:32.047Z,10.05
2022-07-25T11:10:36.336Z,10.13
2022-07-25T11:15:40.914Z,9.18
2022-07-25T11:20:44.029Z,9.32
2022-07-25T11:25:47.064Z,9.35
2022-07-25T11:30:51.545Z,9.52
2022-07-25T11:35:56.507Z,9.93
2022-07-25T11:41:00.022Z,9.30
2022-07-25T11:46:06.615Z,9.27
2022-07-25T11:51:18.634Z,9.25
2022-07-25T12:01:48.839Z,9.30
2022-07-25T12:06:51.961Z,9.02
2022-07-25T12:12:04.649Z,8.30
2022-07-25T12:17:09.099Z,8.60
2022-07-25T12:22:12.195Z,7.53
2022-07-25T12:27:15.243Z,8.35
2022-07-25T12:32:19.611Z,8.07
2022-07-25T12:37:22.689Z,7.78
2022-07-25T12:42:26.112Z,7.43
2022-07-25T12:47:30.511Z,7.57
2022-07-25T12:52:33.618Z,7.13
2022-07-25T12:57:37.631Z,6.80
2022-07-25T13:02:42.168Z,6.90
2022-07-25T13:07:45.513Z,6.13
2022-07-25T13:12:48.986Z,6.65
2022-07-25T13:17:53.487Z,6.60
2022-07-25T13:22:56.595Z,6.43
2022-07-25T13:27:59.614Z,5.97
2022-07-25T13:33:04.056Z,6.00
2022-07-25T13:38:07.102Z,6.40
2022-07-25T13:43:10.332Z,5.78
2022-07-25T13:48:31.661Z,6.07
2022-07-25T13:53:34.942Z,5.80
2022-07-25T13:58:38.176Z,6.00
2022-07-25T14:03:42.758Z,6.13
2022-07-25T14:08:45.871Z,6.40
2022-07-25T14:13:49.137Z,5.68
2022-07-25T14:18:54.917Z,6.18
2022-07-25T14:23:59.305Z,6.30
2022-07-25T14:29:02.756Z,5.80
2022-07-25T14:34:07.532Z,5.65
2022-07-25T14:39:10.897Z,5.88
2022-07-25T14:44:14.123Z,6.22
2022-07-25T14:49:18.650Z,6.28
2022-07-25T14:54:22.204Z,6.25
2022-07-25T14:59:25.531Z,6.47
2022-07-25T15:04:29.984Z,5.57
2022-07-25T15:09:33.076Z,6.07
2022-07-25T15:14:36.723Z,5.82
2022-07-25T15:19:41.134Z,6.30
2022-07-25T15:25:21.416Z,6.05
2022-07-25T15:30:08.460Z,5.88
2022-07-25T15:35:12.935Z,6.03
2022-07-25T15:40:16.018Z,5.90
2022-07-25T15:45:36.267Z,5.38
2022-07-25T15:50:42.874Z,5.57
2022-07-25T15:55:45.900Z,5.80
2022-07-25T16:00:49.031Z,5.70
2022-07-25T16:05:53.950Z,6.00
2022-07-25T16:10:56.985Z,6.13
2022-07-25T16:16:00.051Z,6.00
2022-07-25T16:21:04.644Z,6.20
2022-07-25T16:26:08.701Z,6.07
2022-07-25T16:31:11.926Z,6.13
2022-07-25T16:36:16.368Z,5.90
2022-07-25T16:41:19.381Z,5.65
2022-07-25T16:46:26.840Z,6.15
2022-07-25T16:51:36.824Z,6.78
2022-07-25T16:56:40.352Z,6.30
2022-07-25T17:01:46.394Z,5.80
2022-07-25T17:06:50.936Z,6.20
2022-07-25T17:11:53.988Z,6.63
2022-07-25T17:16:57.061Z,6.22
2022-07-25T17:22:01.508Z,6.43
2022-07-25T17:27:05.283Z,6.47
2022-07-25T17:32:08.452Z,6.32
2022-07-25T17:37:13.288Z,6.45
2022-07-25T17:42:22.129Z,6.30
2022-07-25T17:47:25.319Z,6.32
2022-07-25T17:52:29.690Z,6.32
2022-07-25T17:57:33.023Z,6.80
2022-07-25T18:02:36.231Z,6.78
2022-07-25T18:07:45.169Z,6.30
2022-07-25T18:12:48.493Z,6.40
2022-07-25T18:17:52.838Z,6.05
2022-07-25T18:22:58.605Z,6.25
2022-07-25T18:28:02.153Z,5.75
2022-07-25T18:33:05.266Z,6.53
2022-07-25T18:38:11.637Z,5.63
2022-07-25T18:43:14.720Z,5.65
2022-07-25T18:48:19.231Z,5.65
2022-07-25T18:53:23.611Z,5.45
2022-07-25T18:58:26.795Z,5.53
2022-07-25T19:03:29.900Z,5.43
2022-07-25T19:08:34.312Z,5.32
2022-07-25T19:13:49.441Z,5.90
2022-07-25T19:18:53.446Z,5.30
2022-07-25T19:23:57.848Z,5.38
2022-07-25T19:29:00.889Z,5.57
2022-07-25T19:34:04.086Z,5.50
2022-07-25T19:39:08.973Z,5.38
2022-07-25T19:44:12.016Z,5.30
2022-07-25T19:49:15.390Z,5.63
2022-07-25T19:54:19.854Z,5.93
2022-07-25T19:59:22.891Z,5.15
2022-07-25T20:04:25.958Z,5.38
2022-07-25T20:09:30.479Z,6.00
2022-07-25T20:14:33.787Z,5.63
2022-07-25T20:19:37.123Z,6.03
2022-07-25T20:24:41.596Z,5.63
2022-07-25T20:29:44.851Z,5.68
2022-07-25T20:34:48.250Z,5.13
2022-07-25T20:39:52.670Z,5.93
2022-07-25T20:44:57.680Z,5.35
2022-07-25T20:50:00.759Z,5.53
2022-07-25T20:55:06.767Z,5.10
2022-07-25T21:00:11.647Z,5.15
2022-07-25T21:05:14.727Z,5.25
2022-07-25T21:10:19.235Z,5.00
2022-07-25T21:15:22.354Z,5.03
2022-07-25T21:20:25.408Z,4.88
2022-07-25T21:25:31.807Z,5.07
2022-07-25T21:30:36.352Z,4.68
2022-07-25T21:35:49.388Z,5.57
2022-07-25T21:40:58.436Z,5.43
2022-07-25T21:46:01.501Z,5.30
2022-07-25T21:51:07.601Z,5.30
2022-07-25T21:56:12.254Z,5.25
2022-07-25T22:01:15.366Z,4.93
2022-07-25T22:06:19.249Z,4.30
2022-07-25T22:11:42.521Z,4.18
2022-07-25T22:16:47.302Z,4.38
2022-07-25T22:21:50.904Z,4.70
2022-07-25T22:26:55.341Z,4.55
2022-07-25T22:31:58.837Z,4.53
2022-07-25T22:37:01.992Z,4.45
2022-07-25T22:42:06.799Z,4.65
2022-07-25T22:47:09.822Z,4.70
2022-07-25T22:52:13.572Z,4.43
2022-07-25T22:57:18.003Z,4.40
2022-07-25T23:02:21.067Z,4.60
2022-07-25T23:07:24.081Z,4.40
2022-07-25T23:12:28.557Z,4.25
2022-07-25T23:17:31.576Z,4.60
2022-07-25T23:22:34.598Z,4.55
2022-07-25T23:27:39.604Z,4.03
2022-07-25T23:32:42.686Z,4.20
2022-07-25T23:37:45.717Z,4.30
2022-07-25T23:42:50.133Z,4.07
2022-07-25T23:47:53.356Z,4.13
2022-07-25T23:52:56.409Z,4.25
2022-07-25T23:58:00.813Z,3.83
